Time;durP1;ratioP1;P1;durP2;ratioP2;P2;SDS_P1;SDS_P2;PMS_P1;PMS_P2;Temp;Humidity;BMP_temperature;BMP_pressure;BME280_temperature;BME280_humidity;BME280_pressure;Samples;Min_cycle;Max_cycle;Signal;HPM_P1;HPM_P2
2023/06/23 05:00:42;;;;;;;11.93;10.83;;;20.10;97.20;;;;;;1701244;29;20199;-72
2023/06/23 05:01:33;;;;;;;12.02;10.93;;;20.10;97.20;;;;;;1701250;29;20214;-70
2023/06/23 05:02:27;;;;;;;10.98;9.98;;;20.10;97.20;;;;;;1701138;29;20231;-70
2023/06/23 05:03:20;;;;;;;11.35;10.35;;;20.10;97.20;;;;;;1700897;29;20253;-69
2023/06/23 05:04:14;;;;;;;10.70;9.80;;;20.10;97.20;;;;;;1701263;29;20218;-69
2023/06/23 05:05:08;;;;;;;10.45;9.55;;;20.10;97.20;;;;;;1705664;29;20206;-69
2023/06/23 05:06:00;;;;;;;11.20;10.23;;;20.10;97.20;;;;;;1707852;29;20273;-69
2023/06/23 05:06:53;;;;;;;10.57;9.68;;;20.10;97.20;;;;;;1707826;29;20209;-69
2023/06/23 05:07:45;;;;;;;11.45;10.45;;;20.10;97.20;;;;;;1707756;29;20226;-69
2023/06/23 05:08:36;;;;;;;12.10;10.98;;;20.10;97.20;;;;;;1707640;29;20211;-69
2023/06/23 05:09:29;;;;;;;10.80;9.73;;;20.10;97.20;;;;;;1707761;29;20202;-69
2023/06/23 05:10:23;;;;;;;11.10;10.20;;;20.10;97.20;;;;;;1694449;29;20207;-70
2023/06/23 05:11:16;;;;;;;10.70;9.75;;;20.10;97.20;;;;;;1694414;29;20255;-69
2023/06/23 05:12:09;;;;;;;10.95;10.05;;;20.10;97.20;;;;;;1703078;29;20210;-69
2023/06/23 05:13:03;;;;;;;12.00;10.65;;;20.10;97.20;;;;;;1707253;28;20568;-69
2023/06/23 05:13:56;;;;;;;11.18;10.15;;;20.10;97.20;;;;;;1707403;28;20214;-69
2023/06/23 05:14:50;;;;;;;12.32;11.13;;;20.20;97.20;;;;;;1707417;28;20607;-70
2023/06/23 05:15:44;;;;;;;13.27;11.95;;;20.20;97.20;;;;;;1707441;28;20594;-69
2023/06/23 05:16:38;;;;;;;13.07;11.88;;;20.20;97.20;;;;;;1707526;28;20210;-69
2023/06/23 05:17:32;;;;;;;11.88;10.70;;;20.20;97.20;;;;;;1707437;28;20729;-70
2023/06/23 05:18:24;;;;;;;13.40;12.18;;;20.20;97.20;;;;;;1707312;28;20206;-69
2023/06/23 05:19:17;;;;;;;13.38;12.18;;;20.10;97.20;;;;;;1707416;28;20241;-69
2023/06/23 05:20:11;;;;;;;12.70;11.55;;;20.10;97.20;;;;;;1707479;28;20202;-69
2023/06/23 05:21:03;;;;;;;13.60;12.30;;;20.10;97.20;;;;;;1707479;28;20213;-69
2023/06/23 05:21:58;;;;;;;12.93;11.73;;;20.10;97.20;;;;;;1707390;28;20198;-69
2023/06/23 05:22:51;;;;;;;13.90;12.70;;;20.10;97.20;;;;;;1707531;28;20207;-69
2023/06/23 05:23:45;;;;;;;13.93;12.73;;;20.20;97.20;;;;;;1706973;28;20206;-69
2023/06/23 05:24:37;;;;;;;14.48;13.15;;;20.20;97.20;;;;;;1707338;28;20218;-69
2023/06/23 05:25:32;;;;;;;13.18;12.07;;;20.20;97.20;;;;;;1707484;28;20623;-69
2023/06/23 05:26:25;;;;;;;14.00;12.77;;;20.20;97.20;;;;;;1705890;28;20293;-69
2023/06/23 05:27:20;;;;;;;14.10;12.85;;;20.20;97.20;;;;;;1700465;29;20192;-69
2023/06/23 05:28:13;;;;;;;15.18;13.75;;;20.20;97.20;;;;;;1700760;29;20215;-69
2023/06/23 05:29:07;;;;;;;14.57;13.38;;;20.10;97.20;;;;;;1694306;29;20255;-69
2023/06/23 05:30:01;;;;;;;14.82;13.30;;;20.10;97.20;;;;;;1694053;29;20204;-69
2023/06/23 05:30:56;;;;;;;14.57;13.20;;;20.10;97.20;;;;;;1694019;29;20576;-69
2023/06/23 05:31:50;;;;;;;13.80;12.40;;;20.10;97.20;;;;;;1694250;29;20212;-69
2023/06/23 05:32:43;;;;;;;14.02;12.82;;;20.10;97.20;;;;;;1694207;29;20707;-69
2023/06/23 05:33:39;;;;;;;16.05;14.65;;;20.10;97.20;;;;;;1693834;29;20212;-69
2023/06/23 05:34:33;;;;;;;13.93;12.63;;;20.10;97.20;;;;;;1694014;29;20204;-69
2023/06/23 05:35:24;;;;;;;13.95;12.75;;;20.10;97.20;;;;;;1694208;29;20675;-69
2023/06/23 05:36:18;;;;;;;15.25;12.82;;;20.10;97.20;;;;;;1694186;29;20207;-69
2023/06/23 05:37:10;;;;;;;15.43;14.00;;;20.10;97.20;;;;;;1699329;29;20199;-69
2023/06/23 05:38:05;;;;;;;16.13;14.73;;;20.10;97.20;;;;;;1700348;29;20652;-69
2023/06/23 05:38:56;;;;;;;13.63;12.43;;;20.10;97.20;;;;;;1700701;29;20203;-69
2023/06/23 05:39:49;;;;;;;15.45;14.15;;;20.10;97.20;;;;;;1698719;29;20258;-69
2023/06/23 05:40:40;;;;;;;14.85;13.55;;;20.10;97.20;;;;;;1693992;29;20727;-69
2023/06/23 05:41:32;;;;;;;14.73;13.43;;;20.10;97.20;;;;;;1694078;29;20678;-69
2023/06/23 05:42:23;;;;;;;15.20;13.90;;;20.10;97.20;;;;;;1695067;29;20231;-69
2023/06/23 05:43:15;;;;;;;15.30;14.00;;;20.10;97.20;;;;;;1693885;29;20208;-69
2023/06/23 05:44:05;;;;;;;14.82;13.60;;;20.10;97.20;;;;;;1696832;29;20451;-69
2023/06/23 05:44:57;;;;;;;15.07;13.47;;;20.10;97.20;;;;;;1700567;29;20210;-69
2023/06/23 05:45:50;;;;;;;16.85;15.25;;;20.10;97.20;;;;;;1700163;29;20719;-69
2023/06/23 05:46:45;;;;;;;15.73;14.27;;;20.10;97.20;;;;;;1700707;29;20282;-69
2023/06/23 05:47:41;;;;;;;16.02;14.57;;;20.10;97.20;;;;;;1700652;29;20262;-69
2023/06/23 05:48:37;;;;;;;16.25;14.82;;;20.10;97.20;;;;;;1700662;29;20235;-69
2023/06/23 05:49:34;;;;;;;17.15;15.63;;;20.10;97.20;;;;;;1700747;29;20219;-69
2023/06/23 05:50:29;;;;;;;17.33;15.82;;;20.10;97.20;;;;;;1700545;29;20203;-69
2023/06/23 05:51:25;;;;;;;19.23;17.42;;;20.20;97.20;;;;;;1700527;29;20679;-69
2023/06/23 05:52:20;;;;;;;18.17;16.13;;;20.10;97.20;;;;;;1700679;29;20610;-69
2023/06/23 05:53:15;;;;;;;20.40;18.60;;;20.10;97.20;;;;;;1700371;29;20207;-69
2023/06/23 05:54:10;;;;;;;19.45;17.55;;;20.10;97.20;;;;;;1697495;29;20208;-69
2023/06/23 05:55:04;;;;;;;17.95;16.30;;;20.20;97.20;;;;;;1694063;29;20579;-69
2023/06/23 05:56:02;;;;;;;19.08;17.23;;;20.10;97.20;;;;;;1693957;29;20200;-69
2023/06/23 05:56:58;;;;;;;17.85;16.35;;;20.10;97.20;;;;;;1694048;29;20995;-69
2023/06/23 05:57:54;;;;;;;19.17;17.48;;;20.10;97.20;;;;;;1694238;29;20204;-69
2023/06/23 05:58:48;;;;;;;17.58;15.95;;;20.10;97.20;;;;;;1694098;29;20243;-69
2023/06/23 05:59:42;;;;;;;20.05;18.15;;;20.10;97.20;;;;;;1694045;29;20218;-70
2023/06/23 06:00:38;;;;;;;19.75;17.85;;;20.10;97.20;;;;;;1693965;29;20220;-69
2023/06/23 06:01:33;;;;;;;19.73;18.00;;;20.10;97.20;;;;;;1694021;29;20208;-69
2023/06/23 06:02:32;;;;;;;20.15;18.52;;;20.10;97.20;;;;;;1693731;29;20326;-70
2023/06/23 06:03:27;;;;;;;18.92;17.23;;;20.10;97.20;;;;;;1693826;29;20208;-69
2023/06/23 06:04:25;;;;;;;19.65;17.85;;;20.10;97.20;;;;;;1694961;29;20203;-69
2023/06/23 06:05:18;;;;;;;21.10;19.00;;;20.10;97.20;;;;;;1694137;29;20212;-69
2023/06/23 06:06:11;;;;;;;21.98;19.90;;;20.10;97.20;;;;;;1694016;29;20287;-69
2023/06/23 06:07:03;;;;;;;20.95;18.77;;;20.10;97.20;;;;;;1693878;29;20214;-69
2023/06/23 06:07:57;;;;;;;21.25;19.20;;;20.20;97.20;;;;;;1693955;29;20805;-69
2023/06/23 06:08:49;;;;;;;21.10;19.10;;;20.20;97.20;;;;;;1694008;29;20641;-69
2023/06/23 06:09:43;;;;;;;19.73;17.85;;;20.20;97.20;;;;;;1694043;29;20549;-70
2023/06/23 06:10:36;;;;;;;20.50;18.60;;;20.20;97.20;;;;;;1693861;29;20232;-69
2023/06/23 06:11:29;;;;;;;20.77;18.88;;;20.20;97.20;;;;;;1694075;29;20290;-69
2023/06/23 06:12:22;;;;;;;21.20;19.30;;;20.30;97.20;;;;;;1696779;29;20199;-70
2023/06/23 06:13:15;;;;;;;19.42;17.67;;;20.20;97.20;;;;;;1700165;29;20207;-70
2023/06/23 06:14:07;;;;;;;20.30;18.55;;;20.30;97.20;;;;;;1700102;29;20211;-70
2023/06/23 06:15:02;;;;;;;20.33;18.55;;;20.20;97.20;;;;;;1700422;29;20225;-69
2023/06/23 06:15:55;;;;;;;20.35;18.48;;;20.20;97.20;;;;;;1700626;29;20211;-70
2023/06/23 06:16:48;;;;;;;22.10;20.20;;;20.20;97.20;;;;;;1700577;29;20199;-70
2023/06/23 06:17:43;;;;;;;20.58;18.67;;;20.20;97.20;;;;;;1700367;29;20230;-70
2023/06/23 06:18:36;;;;;;;18.50;16.63;;;20.20;97.20;;;;;;1700286;29;20883;-69
2023/06/23 06:19:29;;;;;;;19.35;17.35;;;20.30;97.20;;;;;;1700318;29;20585;-70
2023/06/23 06:20:22;;;;;;;20.00;18.05;;;20.30;97.20;;;;;;1700001;29;20210;-71
2023/06/23 06:21:15;;;;;;;20.77;18.58;;;20.30;97.20;;;;;;1700939;29;20286;-70
2023/06/23 06:22:09;;;;;;;19.75;17.95;;;20.40;97.20;;;;;;1699680;29;20195;-69
2023/06/23 06:23:01;;;;;;;21.00;18.95;;;20.40;97.20;;;;;;1694094;29;20204;-70
2023/06/23 06:23:55;;;;;;;19.63;17.92;;;20.40;97.20;;;;;;1694026;29;20231;-71
2023/06/23 06:24:47;;;;;;;21.80;19.58;;;20.50;97.20;;;;;;1693824;29;20326;-69
2023/06/23 06:25:41;;;;;;;18.20;16.60;;;20.50;97.20;;;;;;1694023;29;20199;-69
2023/06/23 06:26:32;;;;;;;20.13;18.23;;;20.50;97.20;;;;;;1693529;29;20745;-71
2023/06/23 06:27:24;;;;;;;18.77;17.17;;;20.50;97.20;;;;;;1693779;29;20754;-70
2023/06/23 06:28:18;;;;;;;20.05;18.00;;;20.50;97.20;;;;;;1694232;29;20211;-69
2023/06/23 06:29:12;;;;;;;20.80;18.95;;;20.50;97.20;;;;;;1693682;29;20200;-68
2023/06/23 06:30:04;;;;;;;19.92;18.02;;;20.60;97.20;;;;;;1693514;29;20204;-68
2023/06/23 06:30:58;;;;;;;20.67;18.13;;;20.60;97.20;;;;;;1693335;29;20237;-68
2023/06/23 06:31:51;;;;;;;21.77;19.55;;;20.60;97.20;;;;;;1694158;29;20285;-68
2023/06/23 06:32:45;;;;;;;19.90;18.00;;;20.60;97.20;;;;;;1694221;29;20564;-68
2023/06/23 06:33:40;;;;;;;19.25;17.52;;;20.60;97.20;;;;;;1693814;29;20706;-68
2023/06/23 06:34:33;;;;;;;20.40;18.50;;;20.70;97.20;;;;;;1694170;29;20287;-68
2023/06/23 06:35:24;;;;;;;19.77;17.95;;;20.70;97.20;;;;;;1694244;29;20215;-68
2023/06/23 06:36:17;;;;;;;20.52;18.65;;;20.70;97.20;;;;;;1694090;29;20290;-68
2023/06/23 06:37:09;;;;;;;20.25;18.40;;;20.80;97.20;;;;;;1694019;29;20204;-68
2023/06/23 06:38:01;;;;;;;19.52;17.65;;;20.80;97.20;;;;;;1694107;29;20203;-68
2023/06/23 06:38:54;;;;;;;20.45;18.55;;;20.90;97.20;;;;;;1693497;29;20207;-68
2023/06/23 06:39:46;;;;;;;21.15;18.88;;;20.90;97.20;;;;;;1694055;29;20704;-68
2023/06/23 06:40:39;;;;;;;23.45;20.10;;;21.00;97.20;;;;;;1694172;29;20227;-68
2023/06/23 06:41:31;;;;;;;19.67;17.98;;;21.00;97.20;;;;;;1694178;29;20214;-68
2023/06/23 06:42:22;;;;;;;19.17;17.35;;;21.00;97.20;;;;;;1694016;29;20672;-68
2023/06/23 06:43:14;;;;;;;19.60;17.70;;;21.10;97.20;;;;;;1693805;29;20579;-68
2023/06/23 06:44:05;;;;;;;19.00;17.30;;;21.10;97.20;;;;;;1694090;29;20468;-68
2023/06/23 06:44:57;;;;;;;19.80;17.80;;;21.20;97.20;;;;;;1694079;29;20214;-68
2023/06/23 06:45:50;;;;;;;19.35;17.45;;;21.20;97.20;;;;;;1694163;29;20794;-68
2023/06/23 06:46:44;;;;;;;19.50;17.67;;;21.30;97.20;;;;;;1694173;29;20252;-68
2023/06/23 06:47:40;;;;;;;20.33;18.42;;;21.30;97.20;;;;;;1694113;29;20339;-68
2023/06/23 06:48:35;;;;;;;18.80;16.90;;;21.30;97.20;;;;;;1694131;29;20208;-68
2023/06/23 06:49:27;;;;;;;20.73;18.92;;;21.40;97.20;;;;;;1694083;29;20219;-68
2023/06/23 06:50:20;;;;;;;19.55;17.85;;;21.40;97.20;;;;;;1694067;29;20208;-68
2023/06/23 06:51:11;;;;;;;18.58;16.88;;;21.40;97.20;;;;;;1694087;29;20241;-69
2023/06/23 06:52:04;;;;;;;21.25;17.65;;;21.50;97.20;;;;;;1694180;29;20680;-69
2023/06/23 06:52:55;;;;;;;19.58;17.83;;;21.50;97.20;;;;;;1704511;29;20198;-68
2023/06/23 06:53:47;;;;;;;22.00;19.80;;;21.60;97.20;;;;;;1706197;28;20203;-68
2023/06/23 06:54:40;;;;;;;20.33;18.17;;;21.60;97.20;;;;;;1706717;28;20832;-68
2023/06/23 06:55:32;;;;;;;18.85;17.00;;;21.60;97.20;;;;;;1706793;28;20206;-67
2023/06/23 06:56:23;;;;;;;19.05;17.25;;;21.70;97.20;;;;;;1706957;28;20213;-68
2023/06/23 06:57:16;;;;;;;19.77;17.80;;;21.70;97.20;;;;;;1706975;28;20609;-68
2023/06/23 06:58:07;;;;;;;19.38;17.33;;;21.70;97.20;;;;;;1707067;28;20214;-69
2023/06/23 06:58:59;;;;;;;19.20;17.40;;;21.80;97.20;;;;;;1706830;28;20210;-68
2023/06/23 06:59:50;;;;;;;18.15;16.45;;;21.80;97.20;;;;;;1706919;28;20577;-68
2023/06/23 07:00:43;;;;;;;19.08;17.27;;;21.90;97.20;;;;;;1706897;28;20257;-68
2023/06/23 07:01:35;;;;;;;20.55;16.30;;;22.00;97.20;;;;;;1702909;28;20211;-69
2023/06/23 07:02:29;;;;;;;17.05;15.32;;;22.00;97.20;;;;;;1700293;29;20216;-69
2023/06/23 07:03:20;;;;;;;19.10;17.15;;;22.10;97.20;;;;;;1699803;29;20207;-69
2023/06/23 07:04:14;;;;;;;17.85;16.15;;;22.10;97.20;;;;;;1700229;29;20243;-69
2023/06/23 07:05:06;;;;;;;16.10;14.57;;;22.10;97.20;;;;;;1700166;29;20215;-68
2023/06/23 07:05:58;;;;;;;17.58;16.05;;;22.20;97.20;;;;;;1700240;29;20320;-68
2023/06/23 07:06:52;;;;;;;17.35;15.68;;;22.20;97.20;;;;;;1700131;29;20214;-68
2023/06/23 07:07:45;;;;;;;17.13;15.40;;;22.20;97.20;;;;;;1700346;29;20725;-69
2023/06/23 07:08:36;;;;;;;18.05;16.35;;;22.30;97.20;;;;;;1700336;29;20210;-68
2023/06/23 07:09:28;;;;;;;17.47;15.77;;;22.30;97.20;;;;;;1700456;29;20301;-68
2023/06/23 07:10:19;;;;;;;16.23;14.77;;;22.30;97.20;;;;;;1700207;29;20294;-68
2023/06/23 07:11:12;;;;;;;16.77;15.07;;;22.30;97.20;;;;;;1700422;29;20203;-68
2023/06/23 07:12:06;;;;;;;18.60;16.70;;;22.40;97.20;;;;;;1699869;29;20451;-69
2023/06/23 07:12:58;;;;;;;17.27;15.57;;;22.40;97.20;;;;;;1699939;29;20270;-68
2023/06/23 07:13:49;;;;;;;17.13;15.52;;;22.40;97.20;;;;;;1699963;29;20220;-70
2023/06/23 07:14:41;;;;;;;16.50;15.00;;;22.50;97.20;;;;;;1700338;29;20215;-69
2023/06/23 07:15:31;;;;;;;16.75;15.15;;;22.50;97.20;;;;;;1700383;29;20603;-68
2023/06/23 07:16:24;;;;;;;15.00;13.70;;;22.60;97.20;;;;;;1700495;29;20222;-68
2023/06/23 07:17:15;;;;;;;16.48;14.80;;;22.70;97.20;;;;;;1700106;29;20290;-68
2023/06/23 07:18:07;;;;;;;14.95;13.57;;;22.80;97.20;;;;;;1699936;29;20206;-68
2023/06/23 07:18:58;;;;;;;15.75;14.35;;;22.80;97.20;;;;;;1700229;29;20210;-68
2023/06/23 07:19:51;;;;;;;15.40;13.90;;;22.90;97.20;;;;;;1700699;29;20404;-68
2023/06/23 07:20:41;;;;;;;15.75;14.20;;;23.00;97.20;;;;;;1700530;29;20219;-68
2023/06/23 07:21:33;;;;;;;15.33;13.87;;;23.00;97.20;;;;;;1698092;29;20208;-68
2023/06/23 07:22:24;;;;;;;16.35;14.65;;;23.00;97.20;;;;;;1693719;29;20211;-68
2023/06/23 07:23:16;;;;;;;16.47;14.87;;;23.10;97.20;;;;;;1693030;29;20771;-68
2023/06/23 07:24:07;;;;;;;16.52;14.93;;;23.10;97.20;;;;;;1693393;29;20218;-68
2023/06/23 07:24:58;;;;;;;17.20;14.40;;;23.10;97.20;;;;;;1693327;29;20204;-68
2023/06/23 07:25:49;;;;;;;16.98;15.38;;;23.10;97.20;;;;;;1693684;29;20451;-68
2023/06/23 07:26:41;;;;;;;15.57;14.10;;;23.10;97.20;;;;;;1694135;29;20210;-68
2023/06/23 07:27:32;;;;;;;15.20;13.68;;;23.10;97.20;;;;;;1693911;29;20204;-68
2023/06/23 07:28:23;;;;;;;14.87;13.47;;;23.20;97.20;;;;;;1693982;29;20259;-68
2023/06/23 07:29:14;;;;;;;15.57;13.98;;;23.20;97.20;;;;;;1694041;29;20448;-68
2023/06/23 07:30:07;;;;;;;16.07;14.50;;;23.20;97.20;;;;;;1694062;29;20727;-68
2023/06/23 07:30:58;;;;;;;16.23;14.68;;;23.20;97.20;;;;;;1693857;29;20243;-68
2023/06/23 07:31:50;;;;;;;15.50;14.00;;;23.10;97.20;;;;;;1697902;29;20197;-68
2023/06/23 07:32:40;;;;;;;15.48;13.88;;;23.10;97.20;;;;;;1701913;29;20195;-68
2023/06/23 07:33:32;;;;;;;15.23;13.77;;;23.20;97.20;;;;;;1701507;29;20207;-68
2023/06/23 07:34:23;;;;;;;15.13;13.73;;;23.20;97.20;;;;;;1701750;29;20245;-68
2023/06/23 07:35:16;;;;;;;14.47;13.17;;;23.20;97.20;;;;;;1701841;29;20211;-68
2023/06/23 07:36:07;;;;;;;14.90;13.48;;;23.30;97.20;;;;;;1701754;29;20265;-68
2023/06/23 07:36:58;;;;;;;14.80;13.40;;;23.30;97.20;;;;;;1701776;29;20199;-68
2023/06/23 07:37:49;;;;;;;14.90;13.60;;;23.30;97.20;;;;;;1701715;29;20451;-67
2023/06/23 07:38:41;;;;;;;14.20;12.83;;;23.40;97.20;;;;;;1701857;29;20191;-68
2023/06/23 07:39:32;;;;;;;13.88;12.57;;;23.50;97.20;;;;;;1701746;29;20207;-68
2023/06/23 07:40:24;;;;;;;12.53;11.37;;;23.50;97.20;;;;;;1701859;29;20290;-68
2023/06/23 07:41:15;;;;;;;13.77;12.55;;;23.50;97.20;;;;;;1701785;29;20706;-68
2023/06/23 07:42:07;;;;;;;13.70;12.40;;;23.50;97.20;;;;;;1695493;29;20647;-68
2023/06/23 07:42:58;;;;;;;17.60;14.02;;;23.50;97.20;;;;;;1695111;29;20451;-68
2023/06/23 07:43:49;;;;;;;13.90;12.60;;;23.50;97.20;;;;;;1694927;29;20220;-68
2023/06/23 07:44:41;;;;;;;14.20;12.77;;;23.50;97.20;;;;;;1695099;29;20215;-68
2023/06/23 07:45:33;;;;;;;15.32;13.82;;;23.40;97.20;;;;;;1695286;29;21251;-68
2023/06/23 07:46:24;;;;;;;16.08;14.63;;;23.30;97.20;;;;;;1695253;29;20204;-69
2023/06/23 07:47:17;;;;;;;19.00;14.43;;;23.20;97.20;;;;;;1695167;29;20211;-68
2023/06/23 07:48:07;;;;;;;14.75;13.35;;;23.20;97.20;;;;;;1695227;29;20210;-68
2023/06/23 07:48:59;;;;;;;14.73;13.33;;;23.10;97.20;;;;;;1695251;29;20227;-68
2023/06/23 07:49:51;;;;;;;14.77;13.45;;;23.00;97.20;;;;;;1696054;29;20249;-68
2023/06/23 07:50:43;;;;;;;13.60;12.40;;;22.90;97.20;;;;;;1697870;29;20223;-68
2023/06/23 07:51:35;;;;;;;13.50;12.30;;;22.90;97.20;;;;;;1695131;29;20298;-68
2023/06/23 07:52:26;;;;;;;14.27;12.95;;;22.90;97.20;;;;;;1695080;29;20219;-68
2023/06/23 07:53:17;;;;;;;16.83;15.15;;;22.90;97.20;;;;;;1694777;29;20668;-68
2023/06/23 07:54:09;;;;;;;14.83;13.43;;;22.90;97.20;;;;;;1695107;29;20581;-68
2023/06/23 07:55:00;;;;;;;16.50;14.80;;;22.80;97.20;;;;;;1695167;29;20200;-68
2023/06/23 07:55:51;;;;;;;13.60;12.30;;;22.80;97.20;;;;;;1695153;29;20200;-68
2023/06/23 07:56:42;;;;;;;15.20;13.75;;;22.80;97.20;;;;;;1695107;29;20204;-68
2023/06/23 07:57:34;;;;;;;15.40;13.73;;;22.80;97.20;;;;;;1695109;29;20207;-68
2023/06/23 07:58:24;;;;;;;16.38;14.77;;;22.80;97.20;;;;;;1695301;29;20204;-68
2023/06/23 07:59:16;;;;;;;14.83;13.43;;;22.80;97.20;;;;;;1695125;29;20208;-68
2023/06/23 08:00:08;;;;;;;14.20;12.90;;;22.80;97.20;;;;;;1695130;29;20223;-68
2023/06/23 08:01:00;;;;;;;13.13;11.93;;;22.90;97.20;;;;;;1699629;29;20251;-68
2023/06/23 08:01:50;;;;;;;12.85;11.65;;;22.90;97.20;;;;;;1701634;29;20210;-68
2023/06/23 08:02:42;;;;;;;12.87;11.67;;;23.00;97.20;;;;;;1701383;29;20205;-68
2023/06/23 08:03:33;;;;;;;12.68;11.45;;;23.00;97.20;;;;;;1701155;29;20222;-68
2023/06/23 08:04:25;;;;;;;13.80;12.40;;;23.10;97.20;;;;;;1701641;29;20552;-68
2023/06/23 08:05:16;;;;;;;13.57;12.27;;;23.10;97.20;;;;;;1701638;29;20207;-68
2023/06/23 08:06:09;;;;;;;12.43;11.33;;;23.20;97.20;;;;;;1701704;29;20207;-68
2023/06/23 08:06:59;;;;;;;11.57;10.48;;;23.20;97.20;;;;;;1701721;29;20210;-68
2023/06/23 08:07:51;;;;;;;14.00;12.70;;;23.30;97.20;;;;;;1701615;29;20214;-68
2023/06/23 08:08:46;;;;;;;12.63;11.32;;;23.40;97.20;;;;;;1701586;29;20211;-68
2023/06/23 08:09:38;;;;;;;13.25;11.65;;;23.50;97.20;;;;;;1701637;29;20211;-68
2023/06/23 08:10:29;;;;;;;12.45;11.25;;;23.60;97.20;;;;;;1700404;29;20210;-68
2023/06/23 08:11:20;;;;;;;12.37;11.20;;;23.60;97.20;;;;;;1695102;29;20204;-68
2023/06/23 08:12:11;;;;;;;12.77;11.55;;;23.70;97.20;;;;;;1695002;29;20215;-68
2023/06/23 08:13:03;;;;;;;12.20;11.00;;;23.70;97.20;;;;;;1694658;29;20204;-68
2023/06/23 08:13:54;;;;;;;13.55;11.50;;;23.70;97.20;;;;;;1695039;29;20207;-68
2023/06/23 08:14:46;;;;;;;11.80;10.80;;;23.70;97.20;;;;;;1694877;29;20255;-68
2023/06/23 08:15:37;;;;;;;12.25;11.00;;;23.60;97.20;;;;;;1694972;29;20212;-69
2023/06/23 08:16:29;;;;;;;11.87;10.77;;;23.60;97.20;;;;;;1695061;29;20203;-68
2023/06/23 08:17:19;;;;;;;12.02;11.02;;;23.60;97.20;;;;;;1695003;29;20231;-68
2023/06/23 08:18:11;;;;;;;12.10;11.00;;;23.60;97.20;;;;;;1694971;29;20210;-68
2023/06/23 08:19:02;;;;;;;13.23;12.02;;;23.60;97.20;;;;;;1695025;29;20588;-68
2023/06/23 08:19:54;;;;;;;11.67;10.57;;;23.50;97.20;;;;;;1694964;29;20645;-68
2023/06/23 08:20:44;;;;;;;11.80;10.63;;;23.50;97.20;;;;;;1697372;29;20961;-68
2023/06/23 08:21:38;;;;;;;11.33;10.23;;;23.60;97.20;;;;;;1701509;29;20344;-68
2023/06/23 08:22:28;;;;;;;13.40;12.20;;;23.60;97.20;;;;;;1701494;29;20203;-68
2023/06/23 08:23:20;;;;;;;12.67;11.53;;;23.60;97.20;;;;;;1701102;29;20199;-69
2023/06/23 08:24:11;;;;;;;14.20;12.70;;;23.60;97.20;;;;;;1701438;29;20586;-68
2023/06/23 08:25:04;;;;;;;11.60;10.50;;;23.50;97.20;;;;;;1701561;29;20238;-68
2023/06/23 08:25:55;;;;;;;12.05;10.95;;;23.50;97.20;;;;;;1701450;29;20222;-68
2023/06/23 08:26:46;;;;;;;12.30;11.20;;;23.50;97.20;;;;;;1701514;29;20282;-68
2023/06/23 08:27:37;;;;;;;13.15;11.95;;;23.50;97.20;;;;;;1701439;29;20457;-68
2023/06/23 08:28:29;;;;;;;12.03;10.93;;;23.50;97.20;;;;;;1701450;29;20671;-68
2023/06/23 08:29:20;;;;;;;13.50;11.20;;;23.50;97.20;;;;;;1701546;29;20211;-68
2023/06/23 08:30:12;;;;;;;11.67;10.57;;;23.50;97.20;;;;;;1701418;29;20207;-68
2023/06/23 08:31:03;;;;;;;11.27;10.25;;;23.60;97.20;;;;;;1696343;29;20448;-68
2023/06/23 08:31:55;;;;;;;10.53;9.50;;;23.70;97.20;;;;;;1694932;29;20206;-68
2023/06/23 08:32:45;;;;;;;11.02;9.60;;;23.70;97.20;;;;;;1694889;29;20204;-68
2023/06/23 08:33:38;;;;;;;10.93;9.93;;;23.70;97.20;;;;;;1694553;29;20652;-68
2023/06/23 08:34:29;;;;;;;12.98;10.63;;;23.70;97.20;;;;;;1694765;29;20215;-68
2023/06/23 08:35:21;;;;;;;10.57;9.57;;;23.70;97.20;;;;;;1694978;29;20210;-68
2023/06/23 08:36:12;;;;;;;11.23;10.00;;;23.70;97.20;;;;;;1694960;29;20207;-68
2023/06/23 08:37:05;;;;;;;10.73;9.80;;;23.70;97.20;;;;;;1694970;29;20200;-68
2023/06/23 08:37:56;;;;;;;11.85;10.70;;;23.70;97.20;;;;;;1694807;29;20235;-68
2023/06/23 08:38:48;;;;;;;10.83;9.83;;;23.70;97.20;;;;;;1694908;29;20200;-68
2023/06/23 08:39:39;;;;;;;10.27;9.35;;;23.70;97.20;;;;;;1694796;29;20204;-68
2023/06/23 08:40:30;;;;;;;9.63;8.70;;;23.70;97.20;;;;;;1694728;29;20208;-68
2023/06/23 08:41:23;;;;;;;9.77;8.90;;;23.70;97.20;;;;;;1701384;29;20559;-68
2023/06/23 08:42:14;;;;;;;9.95;8.32;;;23.70;97.20;;;;;;1701039;29;20203;-68
2023/06/23 08:43:07;;;;;;;11.33;8.83;;;23.70;97.20;;;;;;1700543;29;20207;-68
2023/06/23 08:44:00;;;;;;;9.80;8.80;;;23.70;97.20;;;;;;1701229;29;20525;-69
2023/06/23 08:44:56;;;;;;;9.00;8.20;;;23.70;97.20;;;;;;1701293;29;20215;-68
2023/06/23 08:45:54;;;;;;;9.18;8.27;;;23.70;97.20;;;;;;1701406;29;20230;-68
2023/06/23 08:46:51;;;;;;;11.23;8.80;;;23.70;97.20;;;;;;1701415;29;20214;-68
2023/06/23 08:47:48;;;;;;;11.38;9.23;;;23.70;97.20;;;;;;1701463;29;20683;-68
2023/06/23 08:48:41;;;;;;;11.27;9.88;;;23.70;97.20;;;;;;1701400;29;20215;-68
2023/06/23 08:49:35;;;;;;;10.68;9.57;;;23.70;97.20;;;;;;1701277;29;20299;-68
2023/06/23 08:50:26;;;;;;;10.80;9.80;;;23.70;97.20;;;;;;1701242;29;20211;-68
2023/06/23 08:51:18;;;;;;;9.85;8.95;;;23.80;97.20;;;;;;1694962;29;20204;-68
2023/06/23 08:52:11;;;;;;;10.13;9.23;;;23.80;97.20;;;;;;1694739;29;20688;-69
2023/06/23 08:53:04;;;;;;;9.43;8.60;;;23.80;97.20;;;;;;1694447;29;20462;-68
2023/06/23 08:53:55;;;;;;;10.13;8.57;;;23.80;97.20;;;;;;1694699;29;20200;-68
2023/06/23 08:54:48;;;;;;;9.07;8.20;;;23.90;97.20;;;;;;1694702;29;20215;-69
2023/06/23 08:55:39;;;;;;;10.80;9.40;;;23.90;97.20;;;;;;1694500;29;20218;-69
2023/06/23 08:56:31;;;;;;;11.00;10.07;;;23.90;97.20;;;;;;1694722;29;20214;-68
2023/06/23 08:57:23;;;;;;;10.48;9.50;;;23.90;97.20;;;;;;1694795;29;20448;-69
2023/06/23 08:58:16;;;;;;;9.50;8.60;;;23.90;97.20;;;;;;1694656;29;20287;-68
2023/06/23 08:59:07;;;;;;;9.68;8.75;;;23.80;97.20;;;;;;1694770;29;20207;-68
2023/06/23 09:00:00;;;;;;;10.33;9.33;;;23.80;97.20;;;;;;1694679;29;20230;-68
2023/06/23 09:00:52;;;;;;;10.05;9.10;;;23.80;97.20;;;;;;1696772;29;20224;-68
2023/06/23 09:01:44;;;;;;;9.73;8.77;;;23.80;97.20;;;;;;1701272;29;20675;-68
2023/06/23 09:02:35;;;;;;;11.25;9.35;;;23.80;97.20;;;;;;1701273;29;20211;-68
2023/06/23 09:03:26;;;;;;;9.40;8.60;;;23.80;97.20;;;;;;1700867;29;20218;-68
2023/06/23 09:04:19;;;;;;;9.88;8.90;;;23.80;97.20;;;;;;1701303;29;20577;-70
2023/06/23 09:05:10;;;;;;;9.75;8.95;;;23.80;97.20;;;;;;1701127;29;20203;-68
2023/06/23 09:06:01;;;;;;;9.48;8.57;;;23.70;97.20;;;;;;1701245;29;20258;-69
2023/06/23 09:06:53;;;;;;;9.20;8.40;;;23.70;97.20;;;;;;1701203;29;20207;-68
2023/06/23 09:07:45;;;;;;;10.98;9.30;;;23.70;97.20;;;;;;1701245;29;20450;-67
2023/06/23 09:08:37;;;;;;;9.75;8.95;;;23.70;97.20;;;;;;1701222;29;20691;-68
2023/06/23 09:09:28;;;;;;;10.00;9.00;;;23.70;97.20;;;;;;1701200;29;20211;-68
2023/06/23 09:10:19;;;;;;;10.53;8.77;;;23.70;97.20;;;;;;1701146;29;20203;-68
2023/06/23 09:11:10;;;;;;;9.40;8.60;;;23.70;97.20;;;;;;1696009;29;20208;-68
2023/06/23 09:12:02;;;;;;;9.00;8.10;;;23.80;97.20;;;;;;1694612;29;20192;-69
2023/06/23 09:13:20;;;;;;;9.82;8.93;;;23.80;97.20;;;;;;1694542;29;20219;-69
2023/06/23 09:14:11;;;;;;;10.63;8.27;;;23.90;97.20;;;;;;1694622;29;20730;-69
2023/06/23 09:15:03;;;;;;;9.90;8.90;;;24.00;97.20;;;;;;1694600;29;20571;-68
2023/06/23 09:15:54;;;;;;;9.07;8.30;;;24.00;97.20;;;;;;1694583;29;20211;-69
2023/06/23 09:16:46;;;;;;;9.87;8.73;;;24.10;97.20;;;;;;1694646;29;20222;-69
2023/06/23 09:17:39;;;;;;;10.23;9.23;;;24.20;97.20;;;;;;1694604;29;20983;-70
2023/06/23 09:18:32;;;;;;;10.07;9.27;;;24.30;97.20;;;;;;1694583;29;20686;-69
2023/06/23 09:19:24;;;;;;;9.38;8.48;;;24.40;97.20;;;;;;1694650;29;20246;-68
2023/06/23 09:20:16;;;;;;;9.52;8.63;;;24.50;97.20;;;;;;1694493;29;20303;-68
2023/06/23 09:21:08;;;;;;;8.93;8.00;;;24.70;97.20;;;;;;1698445;29;20206;-69
2023/06/23 09:22:00;;;;;;;10.60;9.45;;;24.80;97.20;;;;;;1701102;29;20567;-68
2023/06/23 09:22:55;;;;;;;9.50;8.45;;;24.90;97.20;;;;;;1701155;29;20229;-67
2023/06/23 09:24:03;;;;;;;8.98;8.27;;;25.00;97.20;;;;;;1700778;29;20210;-67
2023/06/23 09:24:54;;;;;;;12.05;9.15;;;25.20;97.20;;;;;;1701042;29;20251;-70
2023/06/23 09:25:47;;;;;;;9.53;8.63;;;25.30;97.20;;;;;;1701168;29;20203;-68
2023/06/23 09:26:45;;;;;;;10.63;8.95;;;25.40;97.20;;;;;;1701089;29;20289;-68
2023/06/23 09:27:40;;;;;;;10.27;8.48;;;25.50;97.20;;;;;;1701070;29;20239;-67
2023/06/23 09:28:34;;;;;;;10.88;9.80;;;25.50;97.20;;;;;;1701095;29;20281;-68